createdAt,value
2022-10-29T00:02:16.613Z,12.13
2022-10-29T00:05:19.619Z,12.13
2022-10-29T00:08:22.093Z,12.14
2022-10-29T00:11:24.861Z,12.14
2022-10-29T00:14:27.345Z,12.14
2022-10-29T00:17:30.192Z,12.13
2022-10-29T00:20:32.674Z,12.16
2022-10-29T00:23:35.451Z,12.15
2022-10-29T00:26:37.907Z,12.16
2022-10-29T00:29:40.623Z,12.15
2022-10-29T00:32:43.208Z,12.15
2022-10-29T00:36:05.769Z,12.16
2022-10-29T00:39:13.335Z,12.16
2022-10-29T00:42:16.782Z,12.16
2022-10-29T00:45:21.147Z,12.15
2022-10-29T00:48:25.753Z,12.16
2022-10-29T00:51:30.649Z,12.16
2022-10-29T00:54:36.098Z,12.16
2022-10-29T00:57:47.164Z,12.16
2022-10-29T01:00:49.869Z,12.16
2022-10-29T01:03:52.876Z,12.15
2022-10-29T01:06:55.934Z,12.14
2022-10-29T01:09:58.571Z,12.14
2022-10-29T01:13:27.453Z,12.14
2022-10-29T01:16:44.229Z,12.14
2022-10-29T01:20:08.598Z,12.14
2022-10-29T01:23:33.236Z,12.13
2022-10-29T01:26:53.470Z,12.12
2022-10-29T01:30:21.537Z,12.13
2022-10-29T01:33:30.263Z,12.14
2022-10-29T01:36:40.765Z,12.14
2022-10-29T01:39:45.150Z,12.15
2022-10-29T01:42:53.933Z,12.15
2022-10-29T01:46:02.112Z,12.15
2022-10-29T01:49:17.814Z,12.16
2022-10-29T01:52:22.190Z,12.15
2022-10-29T01:55:30.702Z,12.15
2022-10-29T01:58:34.771Z,12.15
2022-10-29T02:01:47.423Z,12.15
2022-10-29T02:05:01.688Z,12.16
2022-10-29T02:08:21.336Z,12.16
2022-10-29T02:11:39.501Z,12.14
2022-10-29T02:14:48.299Z,12.13
2022-10-29T02:17:51.179Z,12.14
2022-10-29T02:20:53.758Z,12.13
2022-10-29T02:23:56.490Z,12.12
2022-10-29T02:26:58.957Z,12.12
2022-10-29T02:30:01.793Z,12.11
2022-10-29T02:33:04.312Z,12.10
2022-10-29T02:36:07.595Z,12.08
2022-10-29T02:39:10.671Z,12.12
2022-10-29T02:42:13.371Z,12.12
2022-10-29T02:45:15.906Z,12.11
2022-10-29T02:48:18.672Z,12.09
2022-10-29T02:51:21.142Z,12.11
2022-10-29T02:54:23.941Z,12.11
2022-10-29T02:57:26.388Z,11.96
2022-10-29T03:00:29.226Z,12.06
2022-10-29T03:03:31.684Z,12.09
2022-10-29T03:06:34.414Z,12.09
2022-10-29T03:09:37.029Z,12.09
2022-10-29T03:12:39.756Z,12.07
2022-10-29T03:15:44.715Z,12.07
2022-10-29T03:18:47.639Z,12.05
2022-10-29T03:21:50.069Z,12.06
2022-10-29T03:24:52.773Z,12.06
2022-10-29T03:27:55.624Z,12.08
2022-10-29T03:30:58.821Z,12.04
2022-10-29T03:34:01.305Z,12.04
2022-10-29T03:37:04.059Z,12.00
2022-10-29T03:40:07.543Z,12.02
2022-10-29T03:43:10.284Z,12.03
2022-10-29T03:46:12.760Z,12.04
2022-10-29T03:49:15.458Z,12.03
2022-10-29T03:52:17.909Z,12.03
2022-10-29T03:55:20.646Z,12.04
2022-10-29T03:58:23.635Z,12.05
2022-10-29T04:01:26.418Z,12.03
2022-10-29T04:04:29.214Z,12.02
2022-10-29T04:07:31.679Z,11.95
2022-10-29T04:10:34.477Z,11.90
2022-10-29T04:13:37.161Z,11.87
2022-10-29T04:16:39.868Z,11.71
2022-10-29T04:19:42.355Z,11.73
2022-10-29T04:29:30.238Z,11.74
2022-10-29T04:32:32.727Z,11.68
2022-10-29T04:35:35.472Z,11.69
2022-10-29T04:38:38.127Z,11.71
2022-10-29T04:41:40.899Z,11.68
2022-10-29T04:44:43.345Z,11.69
2022-10-29T04:47:46.288Z,11.65
2022-10-29T04:50:49.127Z,11.59
2022-10-29T04:53:51.867Z,11.57
2022-10-29T04:56:54.410Z,11.54
2022-10-29T04:59:57.113Z,11.59
2022-10-29T05:02:59.957Z,11.59
2022-10-29T05:06:04.867Z,11.57
2022-10-29T05:09:07.350Z,11.57
2022-10-29T05:12:10.116Z,11.60
2022-10-29T05:15:12.608Z,11.57
2022-10-29T05:18:15.498Z,11.60
2022-10-29T05:21:17.948Z,11.64
2022-10-29T05:24:20.718Z,11.58
2022-10-29T05:27:23.195Z,11.65
2022-10-29T05:30:25.942Z,11.65
2022-10-29T05:33:28.437Z,11.68
2022-10-29T05:36:31.211Z,11.69
2022-10-29T05:39:33.652Z,11.69
2022-10-29T05:42:38.183Z,11.61
2022-10-29T05:45:41.181Z,11.65
2022-10-29T05:48:43.884Z,11.67
2022-10-29T05:51:46.367Z,11.70
2022-10-29T05:54:49.106Z,11.72
2022-10-29T05:57:58.877Z,11.74
2022-10-29T06:01:06.072Z,11.75
2022-10-29T06:04:08.941Z,11.73
2022-10-29T06:07:11.411Z,11.71
2022-10-29T06:10:14.266Z,11.74
2022-10-29T06:13:18.638Z,11.76
2022-10-29T06:16:21.468Z,11.72
2022-10-29T06:19:23.947Z,11.74
2022-10-29T06:22:26.684Z,11.76
2022-10-29T06:25:29.166Z,11.70
2022-10-29T06:28:34.799Z,11.76
2022-10-29T06:31:37.602Z,11.68
2022-10-29T06:34:40.342Z,11.74
2022-10-29T06:37:42.829Z,11.74
2022-10-29T06:40:52.717Z,11.75
2022-10-29T06:43:55.291Z,11.76
2022-10-29T06:46:58.075Z,11.80
2022-10-29T06:50:01.095Z,11.80
2022-10-29T06:53:06.045Z,11.71
2022-10-29T06:56:08.480Z,11.80
2022-10-29T06:59:11.666Z,11.69
2022-10-29T07:02:14.127Z,11.68
2022-10-29T07:05:16.871Z,11.70
2022-10-29T07:08:19.408Z,11.73
2022-10-29T07:11:22.216Z,11.71
2022-10-29T07:14:24.711Z,11.73
2022-10-29T07:17:27.491Z,11.73
2022-10-29T07:20:36.087Z,11.75
2022-10-29T07:23:38.821Z,11.76
2022-10-29T07:26:41.321Z,11.73
2022-10-29T07:29:44.508Z,11.80
2022-10-29T07:32:46.973Z,11.87
2022-10-29T07:35:49.723Z,11.90
2022-10-29T07:38:52.339Z,11.99
2022-10-29T07:41:58.239Z,12.00
2022-10-29T07:45:01.896Z,12.05
2022-10-29T07:48:09.701Z,11.93
2022-10-29T07:51:12.150Z,12.02
2022-10-29T07:54:15.015Z,12.02
2022-10-29T07:57:17.579Z,12.12
2022-10-29T08:00:20.349Z,12.14
2022-10-29T08:03:23.098Z,12.15
2022-10-29T08:06:25.505Z,12.13
2022-10-29T08:09:28.740Z,12.15
2022-10-29T08:12:31.203Z,12.18
2022-10-29T08:15:35.013Z,12.17
2022-10-29T08:18:37.590Z,12.19
2022-10-29T08:21:40.434Z,12.19
2022-10-29T08:24:42.871Z,12.14
2022-10-29T08:27:45.687Z,12.10
2022-10-29T08:30:51.441Z,12.03
2022-10-29T08:33:54.136Z,12.04
2022-10-29T08:36:56.574Z,11.88
2022-10-29T08:39:59.284Z,12.13
2022-10-29T08:43:46.140Z,12.15
2022-10-29T08:46:55.240Z,12.04
2022-10-29T08:50:23.924Z,12.10
2022-10-29T08:53:34.120Z,12.23
2022-10-29T08:56:38.695Z,12.15
2022-10-29T09:00:02.484Z,12.36
2022-10-29T09:03:11.346Z,12.43
2022-10-29T09:06:19.752Z,12.43
2022-10-29T09:09:35.111Z,12.44
2022-10-29T09:12:53.293Z,12.16
2022-10-29T09:16:07.567Z,12.35
2022-10-29T09:19:29.548Z,12.23
2022-10-29T09:22:51.225Z,12.09
2022-10-29T09:26:01.611Z,12.14
2022-10-29T09:29:07.031Z,12.13
2022-10-29T09:32:13.938Z,12.27
2022-10-29T09:35:19.173Z,12.38
2022-10-29T09:38:32.847Z,12.28
2022-10-29T09:41:35.572Z,12.35
2022-10-29T09:44:47.525Z,12.32
2022-10-29T09:48:01.735Z,12.41
2022-10-29T09:51:23.099Z,12.46
2022-10-29T09:54:27.286Z,12.40
2022-10-29T09:57:31.988Z,12.37
2022-10-29T10:00:35.236Z,12.19
2022-10-29T10:03:46.938Z,12.20
2022-10-29T10:07:20.729Z,12.25
2022-10-29T10:10:24.085Z,12.30
2022-10-29T10:13:31.637Z,12.43
2022-10-29T10:16:34.416Z,12.52
2022-10-29T10:19:44.286Z,12.43
2022-10-29T10:22:47.513Z,12.48
2022-10-29T10:25:51.141Z,12.38
2022-10-29T10:29:05.737Z,12.30
2022-10-29T10:32:08.983Z,12.48
2022-10-29T10:35:28.080Z,12.44
2022-10-29T10:38:41.291Z,12.49
2022-10-29T10:41:44.265Z,12.27
2022-10-29T10:44:59.186Z,12.19
2022-10-29T10:48:02.410Z,12.38
2022-10-29T10:51:19.339Z,12.24
2022-10-29T10:54:42.408Z,12.30
2022-10-29T10:57:54.125Z,12.21
2022-10-29T11:01:06.642Z,12.34
2022-10-29T11:04:12.084Z,12.22
2022-10-29T11:07:15.540Z,12.41
2022-10-29T11:10:19.452Z,12.40
2022-10-29T11:13:24.086Z,12.49
2022-10-29T11:16:34.359Z,12.49
2022-10-29T11:19:43.184Z,12.48
2022-10-29T11:22:47.767Z,12.44
2022-10-29T11:25:56.498Z,12.30
2022-10-29T11:29:14.586Z,12.32
2022-10-29T11:32:51.214Z,12.41
2022-10-29T11:36:04.382Z,12.40
2022-10-29T11:39:26.924Z,12.48
2022-10-29T11:42:29.791Z,12.45
2022-10-29T11:46:21.963Z,12.38
2022-10-29T11:49:39.349Z,12.49
2022-10-29T11:53:00.714Z,12.24
2022-10-29T11:56:29.393Z,12.14
2022-10-29T11:59:53.573Z,12.34
2022-10-29T12:03:17.418Z,12.43
2022-10-29T12:06:41.957Z,12.37
2022-10-29T12:10:03.155Z,12.32
2022-10-29T12:13:33.254Z,12.27
2022-10-29T12:17:05.865Z,12.32
2022-10-29T12:20:22.192Z,12.16
2022-10-29T12:23:49.376Z,12.29
2022-10-29T12:27:26.110Z,12.29
2022-10-29T12:30:32.013Z,12.23
2022-10-29T12:33:57.311Z,12.31
2022-10-29T12:37:15.465Z,12.37
2022-10-29T12:40:23.343Z,12.38
2022-10-29T12:43:27.810Z,12.38
2022-10-29T12:46:43.807Z,12.38
2022-10-29T12:50:13.636Z,12.37
2022-10-29T12:53:35.052Z,12.36
2022-10-29T12:56:37.936Z,12.36
2022-10-29T12:59:44.715Z,12.30
2022-10-29T13:02:47.462Z,12.31
2022-10-29T13:05:50.382Z,12.29
2022-10-29T13:08:57.286Z,12.28
2022-10-29T13:12:11.430Z,12.18
2022-10-29T13:15:15.615Z,12.01
2022-10-29T13:18:24.631Z,12.21
2022-10-29T13:22:04.719Z,12.12
2022-10-29T13:25:38.397Z,12.16
2022-10-29T13:28:40.817Z,12.19
2022-10-29T13:31:45.972Z,12.09
2022-10-29T13:34:56.997Z,12.03
2022-10-29T13:38:08.779Z,12.06
2022-10-29T13:41:14.837Z,11.99
2022-10-29T13:44:22.360Z,12.06
2022-10-29T13:47:25.508Z,12.09
2022-10-29T13:50:29.815Z,12.11
2022-10-29T13:53:39.941Z,12.11
2022-10-29T13:56:49.344Z,12.03
2022-10-29T13:59:58.318Z,12.09
2022-10-29T14:03:38.719Z,12.07
2022-10-29T14:06:41.592Z,12.07
2022-10-29T14:09:47.560Z,12.09
2022-10-29T14:12:55.865Z,12.09
2022-10-29T14:16:07.457Z,12.02
2022-10-29T14:19:14.980Z,12.08
2022-10-29T14:22:39.225Z,12.08
2022-10-29T14:25:41.964Z,12.06
2022-10-29T14:28:44.714Z,12.05
2022-10-29T14:31:48.885Z,12.06
2022-10-29T14:34:51.895Z,12.08
2022-10-29T14:37:57.037Z,12.04
2022-10-29T14:40:59.966Z,12.02
2022-10-29T14:44:04.215Z,12.00
2022-10-29T14:47:06.573Z,11.97
2022-10-29T14:50:18.764Z,11.97
2022-10-29T14:53:29.715Z,11.95
2022-10-29T14:56:38.669Z,11.91
2022-10-29T14:59:48.180Z,11.85
2022-10-29T15:02:51.481Z,11.78
2022-10-29T15:06:17.527Z,11.82
2022-10-29T15:09:28.061Z,11.87
2022-10-29T15:12:35.763Z,11.91
2022-10-29T15:15:38.560Z,11.90
2022-10-29T15:18:41.128Z,11.92
2022-10-29T15:21:44.097Z,11.80
2022-10-29T15:24:48.437Z,11.85
2022-10-29T15:27:51.906Z,11.85
2022-10-29T15:30:54.552Z,11.86
2022-10-29T15:33:59.368Z,11.81
2022-10-29T15:37:20.205Z,11.78
2022-10-29T15:40:24.987Z,11.77
2022-10-29T15:43:29.867Z,11.75
2022-10-29T15:46:44.500Z,11.74
2022-10-29T15:49:47.508Z,11.69
2022-10-29T15:52:56.101Z,11.71
2022-10-29T15:55:58.618Z,11.75
2022-10-29T15:59:01.468Z,11.77
2022-10-29T16:02:13.186Z,11.72
2022-10-29T16:05:16.572Z,11.69
2022-10-29T16:08:28.991Z,11.66
2022-10-29T16:11:34.152Z,11.65
2022-10-29T16:14:36.621Z,11.64
2022-10-29T16:17:39.407Z,11.64
2022-10-29T16:20:42.176Z,11.63
2022-10-29T16:23:45.392Z,11.61
2022-10-29T16:26:47.844Z,11.63
2022-10-29T16:29:51.765Z,11.64
2022-10-29T16:32:54.876Z,11.66
2022-10-29T16:35:58.072Z,11.65
2022-10-29T16:39:00.757Z,11.66
2022-10-29T16:42:03.854Z,11.61
2022-10-29T16:45:10.113Z,11.63
2022-10-29T16:48:12.886Z,11.63
2022-10-29T16:51:15.555Z,11.63
2022-10-29T16:54:18.338Z,11.60
2022-10-29T16:57:20.919Z,11.61
2022-10-29T17:00:31.559Z,11.62
2022-10-29T17:03:34.394Z,11.61
2022-10-29T17:06:37.178Z,11.59
2022-10-29T17:09:40.166Z,11.61
2022-10-29T17:12:43.101Z,11.59
2022-10-29T17:15:45.586Z,11.60
2022-10-29T17:18:50.827Z,11.58
2022-10-29T17:21:53.655Z,11.58
2022-10-29T17:24:58.772Z,11.57
2022-10-29T17:28:02.350Z,11.57
2022-10-29T17:31:09.613Z,11.56
2022-10-29T17:34:12.076Z,11.54
2022-10-29T17:37:16.089Z,11.50
2022-10-29T17:40:18.610Z,11.53
2022-10-29T17:43:21.598Z,11.55
2022-10-29T17:46:24.126Z,11.48
2022-10-29T17:49:27.243Z,11.51
2022-10-29T17:52:29.654Z,11.50
2022-10-29T17:55:32.361Z,11.50
2022-10-29T17:58:35.007Z,11.49
2022-10-29T18:01:38.084Z,11.50
2022-10-29T18:04:41.706Z,11.48
2022-10-29T18:07:44.390Z,11.51
2022-10-29T18:10:47.439Z,11.46
2022-10-29T18:13:50.805Z,11.49
2022-10-29T18:16:53.573Z,11.44
2022-10-29T18:19:56.351Z,11.45
2022-10-29T18:22:59.445Z,11.48
2022-10-29T18:26:05.214Z,11.45
2022-10-29T18:29:10.451Z,11.45
2022-10-29T18:32:12.965Z,11.45
2022-10-29T18:35:16.052Z,11.47
2022-10-29T18:38:18.590Z,11.47
2022-10-29T18:41:22.691Z,11.46
2022-10-29T18:44:26.346Z,11.46
2022-10-29T18:47:29.304Z,11.43
2022-10-29T18:50:31.871Z,11.45
2022-10-29T18:53:36.110Z,11.44
2022-10-29T18:56:39.331Z,11.44
2022-10-29T18:59:42.307Z,11.43
2022-10-29T19:02:45.362Z,11.41
2022-10-29T19:05:48.209Z,11.43
2022-10-29T19:08:50.951Z,11.44
2022-10-29T19:11:56.737Z,11.44
2022-10-29T19:15:02.394Z,11.46
2022-10-29T19:18:06.257Z,11.48
2022-10-29T19:21:13.720Z,11.51
2022-10-29T19:24:17.141Z,11.48
2022-10-29T19:27:19.948Z,11.50
2022-10-29T19:30:22.687Z,11.50
2022-10-29T19:33:25.148Z,11.51
2022-10-29T19:36:29.154Z,11.53
2022-10-29T19:39:31.945Z,11.53
2022-10-29T19:42:35.803Z,11.56
2022-10-29T19:45:40.121Z,11.56
2022-10-29T19:48:43.248Z,11.59
2022-10-29T19:51:46.413Z,11.57
2022-10-29T19:54:49.213Z,11.49
2022-10-29T19:57:51.804Z,11.60
2022-10-29T20:00:55.181Z,11.59
2022-10-29T20:03:58.407Z,11.60
2022-10-29T20:07:01.105Z,11.63
2022-10-29T20:10:04.972Z,11.63
2022-10-29T20:13:07.735Z,11.66
2022-10-29T20:16:21.282Z,11.64
2022-10-29T20:19:24.224Z,11.60
2022-10-29T20:22:26.961Z,11.61
2022-10-29T20:25:29.484Z,11.64
2022-10-29T20:28:33.040Z,11.66
2022-10-29T20:31:40.097Z,11.66
2022-10-29T20:34:43.882Z,11.65
2022-10-29T20:37:46.548Z,11.57
2022-10-29T20:40:50.791Z,11.62
2022-10-29T20:43:54.984Z,11.62
2022-10-29T20:46:57.828Z,11.65
2022-10-29T20:50:00.854Z,11.66
2022-10-29T20:53:03.738Z,11.67
2022-10-29T20:56:08.199Z,11.67
2022-10-29T20:59:13.382Z,11.67
2022-10-29T21:02:15.950Z,11.67
2022-10-29T21:05:18.791Z,11.67
2022-10-29T21:08:21.387Z,11.70
2022-10-29T21:11:24.240Z,11.66
2022-10-29T21:14:27.593Z,11.68
2022-10-29T21:17:30.379Z,11.68
2022-10-29T21:20:32.839Z,11.69
2022-10-29T21:23:39.222Z,11.67
2022-10-29T21:26:41.650Z,11.66
2022-10-29T21:29:44.712Z,11.65
2022-10-29T21:32:47.219Z,11.68
2022-10-29T21:35:51.500Z,11.67
2022-10-29T21:38:54.028Z,11.64
2022-10-29T21:41:57.144Z,11.61
2022-10-29T21:44:59.687Z,11.62
2022-10-29T21:48:02.617Z,11.60
2022-10-29T21:51:07.153Z,11.58
2022-10-29T21:54:09.861Z,11.60
2022-10-29T21:57:12.331Z,11.60
2022-10-29T22:00:16.041Z,11.61
2022-10-29T22:03:18.802Z,11.63
2022-10-29T22:06:23.005Z,11.64
2022-10-29T22:09:26.158Z,11.63
2022-10-29T22:12:31.119Z,11.64
2022-10-29T22:15:34.646Z,11.63
2022-10-29T22:18:37.703Z,11.63
2022-10-29T22:21:40.897Z,11.57
2022-10-29T22:24:43.306Z,11.59
2022-10-29T22:27:46.037Z,11.60
2022-10-29T22:30:48.466Z,11.60
2022-10-29T22:33:51.450Z,11.58
2022-10-29T22:36:54.122Z,11.60
2022-10-29T22:39:57.182Z,11.58
2022-10-29T22:43:00.034Z,11.61
2022-10-29T22:46:04.544Z,11.61
2022-10-29T22:49:07.585Z,11.57
2022-10-29T22:52:10.309Z,11.57
2022-10-29T22:55:12.774Z,11.58
2022-10-29T22:58:15.614Z,11.53
2022-10-29T23:01:26.114Z,11.54
2022-10-29T23:04:28.931Z,11.53
2022-10-29T23:10:35.930Z,11.52
2022-10-29T23:13:38.424Z,11.53
2022-10-29T23:16:41.190Z,11.52
2022-10-29T23:19:43.697Z,11.46
2022-10-29T23:22:46.407Z,11.50
2022-10-29T23:25:48.820Z,11.50
2022-10-29T23:28:51.786Z,11.51
2022-10-29T23:31:54.275Z,11.50
2022-10-29T23:34:56.977Z,11.51
2022-10-29T23:37:59.786Z,11.51
2022-10-29T23:41:03.249Z,11.50
2022-10-29T23:44:05.711Z,11.48
2022-10-29T23:47:08.478Z,11.53
2022-10-29T23:50:11.090Z,11.52
2022-10-29T23:53:14.145Z,11.52
2022-10-29T23:56:16.588Z,11.52
2022-10-29T23:59:19.350Z,11.52
